createdAt,value
2023-01-28T00:01:57.613Z,6.50
2023-01-28T00:04:25.505Z,6.50
2023-01-28T00:06:53.663Z,6.40
2023-01-28T00:09:20.530Z,6.40
2023-01-28T00:11:47.354Z,6.50
2023-01-28T00:14:14.294Z,6.60
2023-01-28T00:16:41.152Z,6.70
2023-01-28T00:19:08.387Z,6.80
2023-01-28T00:21:35.160Z,6.80
2023-01-28T00:24:02.100Z,6.80
2023-01-28T00:26:30.210Z,6.50
2023-01-28T00:28:57.292Z,6.30
2023-01-28T00:31:27.476Z,6.20
2023-01-28T00:33:55.502Z,6.20
2023-01-28T00:36:24.775Z,6.30
2023-01-28T00:39:00.179Z,6.40
2023-01-28T00:41:28.906Z,6.40
2023-01-28T00:43:55.823Z,6.40
2023-01-28T00:46:23.819Z,6.70
2023-01-28T00:48:50.808Z,6.60
2023-01-28T00:51:20.180Z,6.50
2023-01-28T00:53:48.317Z,6.50
2023-01-28T00:56:17.875Z,6.20
2023-01-28T00:58:45.593Z,5.80
2023-01-28T01:01:18.333Z,6.00
2023-01-28T01:03:45.707Z,6.10
2023-01-28T01:06:15.005Z,6.30
2023-01-28T01:08:42.922Z,6.40
2023-01-28T01:11:11.493Z,6.40
2023-01-28T01:13:38.622Z,6.40
2023-01-28T01:16:11.453Z,6.30
2023-01-28T01:18:42.385Z,6.40
2023-01-28T01:21:17.940Z,6.20
2023-01-28T01:23:45.422Z,6.30
2023-01-28T01:26:12.863Z,6.30
2023-01-28T01:28:39.790Z,6.30
2023-01-28T01:31:12.763Z,6.50
2023-01-28T01:33:39.967Z,6.20
2023-01-28T01:36:07.753Z,6.20
2023-01-28T01:38:36.846Z,6.10
2023-01-28T01:41:05.175Z,6.20
2023-01-28T01:43:55.064Z,6.30
2023-01-28T01:46:48.633Z,6.40
2023-01-28T01:49:25.217Z,6.40
2023-01-28T01:51:56.220Z,6.20
2023-01-28T01:54:27.532Z,6.40
2023-01-28T01:56:55.119Z,6.50
2023-01-28T01:59:29.980Z,6.40
2023-01-28T02:02:01.267Z,6.50
2023-01-28T02:04:36.190Z,6.50
2023-01-28T02:07:03.206Z,6.40
2023-01-28T02:09:32.459Z,6.40
2023-01-28T02:12:05.075Z,6.40
2023-01-28T02:14:35.662Z,6.30
2023-01-28T02:17:03.469Z,6.30
2023-01-28T02:19:54.090Z,6.40
2023-01-28T02:22:29.677Z,6.30
2023-01-28T02:25:12.165Z,6.30
2023-01-28T02:28:02.515Z,6.30
2023-01-28T02:30:35.395Z,6.20
2023-01-28T02:33:36.357Z,6.00
2023-01-28T02:36:22.217Z,5.80
2023-01-28T02:38:52.908Z,5.90
2023-01-28T02:41:31.778Z,6.10
2023-01-28T02:44:01.477Z,6.20
2023-01-28T02:46:49.156Z,6.30
2023-01-28T02:49:31.530Z,6.30
2023-01-28T02:52:48.455Z,6.10
2023-01-28T02:55:39.170Z,6.20
2023-01-28T02:58:31.643Z,6.20
2023-01-28T03:01:15.246Z,6.20
2023-01-28T03:03:44.549Z,6.20
2023-01-28T03:06:16.174Z,6.30
2023-01-28T03:09:06.301Z,6.10
2023-01-28T03:11:56.088Z,5.90
2023-01-28T03:14:42.913Z,5.70
2023-01-28T03:17:35.246Z,5.70
2023-01-28T03:20:20.746Z,5.90
2023-01-28T03:23:10.482Z,5.80
2023-01-28T03:25:59.084Z,5.80
2023-01-28T03:28:47.154Z,5.80
2023-01-28T03:31:35.141Z,5.90
2023-01-28T03:34:22.286Z,6.00
2023-01-28T03:36:49.928Z,5.90
2023-01-28T03:39:18.883Z,5.90
2023-01-28T03:42:06.755Z,5.80
2023-01-28T03:44:52.617Z,5.70
2023-01-28T03:47:24.655Z,5.80
2023-01-28T03:49:53.558Z,5.90
2023-01-28T03:52:23.048Z,5.90
2023-01-28T03:54:50.206Z,6.00
2023-01-28T03:57:18.678Z,5.70
2023-01-28T03:59:45.510Z,5.80
2023-01-28T04:02:12.969Z,5.90
2023-01-28T04:04:40.643Z,6.00
2023-01-28T04:07:10.551Z,6.00
2023-01-28T04:09:38.584Z,6.10
2023-01-28T04:12:06.125Z,6.10
2023-01-28T04:14:33.442Z,6.20
2023-01-28T04:17:00.252Z,6.10
2023-01-28T04:19:28.245Z,6.00
2023-01-28T04:21:55.325Z,6.20
2023-01-28T04:24:23.413Z,6.20
2023-01-28T04:26:50.311Z,6.20
2023-01-28T04:29:17.068Z,6.50
2023-01-28T04:31:43.911Z,6.30
2023-01-28T04:34:10.680Z,6.10
2023-01-28T04:36:37.491Z,6.20
2023-01-28T04:39:04.616Z,5.90
2023-01-28T04:41:31.455Z,5.50
2023-01-28T04:43:58.226Z,5.60
2023-01-28T04:46:25.030Z,5.80
2023-01-28T04:48:51.855Z,5.90
2023-01-28T04:51:18.778Z,6.00
2023-01-28T04:53:46.377Z,6.20
2023-01-28T04:56:13.302Z,7.10
2023-01-28T04:58:40.184Z,6.50
2023-01-28T05:01:08.177Z,6.30
2023-01-28T05:03:36.446Z,6.10
2023-01-28T05:06:05.156Z,5.80
2023-01-28T05:08:32.135Z,5.70
2023-01-28T05:10:58.899Z,6.00
2023-01-28T05:13:25.641Z,6.10
2023-01-28T05:15:53.976Z,5.90
2023-01-28T05:18:20.777Z,6.70
2023-01-28T05:20:48.743Z,5.90
2023-01-28T05:23:15.553Z,6.10
2023-01-28T05:25:42.299Z,6.10
2023-01-28T05:28:09.042Z,6.00
2023-01-28T05:30:35.852Z,6.00
2023-01-28T05:33:02.612Z,5.60
2023-01-28T05:35:29.432Z,5.60
2023-01-28T05:37:56.187Z,5.50
2023-01-28T05:40:22.967Z,5.60
2023-01-28T05:42:49.722Z,5.70
2023-01-28T05:45:16.928Z,5.70
2023-01-28T05:47:45.726Z,5.70
2023-01-28T05:50:14.718Z,5.50
2023-01-28T05:52:43.068Z,5.70
2023-01-28T05:55:11.635Z,5.70
2023-01-28T05:57:38.443Z,5.70
2023-01-28T06:00:05.905Z,5.80
2023-01-28T06:02:32.807Z,5.40
2023-01-28T06:05:00.502Z,5.30
2023-01-28T06:07:27.397Z,5.40
2023-01-28T06:09:54.339Z,5.50
2023-01-28T06:12:23.295Z,5.60
2023-01-28T06:14:50.109Z,5.90
2023-01-28T06:17:16.976Z,6.00
2023-01-28T06:19:44.101Z,5.90
2023-01-28T06:22:11.305Z,5.80
2023-01-28T06:24:38.141Z,6.60
2023-01-28T06:27:04.853Z,5.90
2023-01-28T06:29:31.835Z,6.00
2023-01-28T06:31:58.800Z,5.70
2023-01-28T06:34:25.947Z,5.80
2023-01-28T06:36:53.453Z,6.00
2023-01-28T06:39:24.335Z,6.10
2023-01-28T06:41:51.200Z,6.20
2023-01-28T06:44:18.102Z,6.10
2023-01-28T06:46:44.923Z,6.30
2023-01-28T06:49:11.753Z,6.20
2023-01-28T06:51:38.492Z,6.10
2023-01-28T06:54:05.535Z,6.20
2023-01-28T06:56:32.753Z,6.20
2023-01-28T06:59:02.637Z,6.10
2023-01-28T07:01:29.785Z,6.10
2023-01-28T07:03:56.856Z,6.20
2023-01-28T07:06:26.498Z,6.00
2023-01-28T07:08:55.094Z,6.10
2023-01-28T07:11:22.338Z,6.20
2023-01-28T07:13:49.124Z,6.30
2023-01-28T07:16:16.398Z,6.30
2023-01-28T07:18:43.120Z,6.40
2023-01-28T07:21:09.887Z,6.70
2023-01-28T07:23:36.655Z,6.50
2023-01-28T07:26:04.638Z,6.40
2023-01-28T07:28:35.252Z,6.40
2023-01-28T07:31:02.149Z,6.50
2023-01-28T07:33:28.948Z,6.20
2023-01-28T07:35:55.835Z,5.90
2023-01-28T07:38:22.609Z,5.70
2023-01-28T07:40:49.435Z,5.80
2023-01-28T07:43:16.421Z,5.90
2023-01-28T07:45:43.202Z,6.30
2023-01-28T07:48:13.566Z,6.20
2023-01-28T07:50:41.097Z,6.20
2023-01-28T07:53:11.227Z,6.20
2023-01-28T07:55:40.085Z,6.20
2023-01-28T07:58:08.360Z,6.20
2023-01-28T08:00:40.293Z,5.80
2023-01-28T08:03:16.739Z,6.00
2023-01-28T08:05:49.085Z,6.20
2023-01-28T08:08:16.538Z,6.30
2023-01-28T08:10:44.777Z,6.30
2023-01-28T08:13:13.731Z,6.30
2023-01-28T08:15:41.166Z,6.30
2023-01-28T08:18:10.661Z,6.30
2023-01-28T08:20:37.465Z,6.10
2023-01-28T08:23:09.503Z,6.00
2023-01-28T08:25:36.376Z,6.00
2023-01-28T08:28:03.861Z,6.20
2023-01-28T08:30:30.985Z,6.20
2023-01-28T08:32:59.529Z,6.40
2023-01-28T08:35:27.891Z,6.40
2023-01-28T08:37:55.127Z,6.50
2023-01-28T08:40:22.428Z,4.90
2023-01-28T08:42:53.433Z,6.40
2023-01-28T08:45:27.520Z,6.00
2023-01-28T08:48:03.548Z,5.80
2023-01-28T08:50:33.332Z,6.10
2023-01-28T08:53:03.732Z,6.10
2023-01-28T08:55:38.603Z,6.10
2023-01-28T08:58:06.901Z,7.30
2023-01-28T09:00:35.311Z,6.10
2023-01-28T09:03:17.053Z,6.00
2023-01-28T09:05:53.680Z,6.00
2023-01-28T09:08:20.718Z,6.10
2023-01-28T09:10:47.524Z,6.30
2023-01-28T09:13:16.117Z,6.30
2023-01-28T09:15:43.886Z,6.50
2023-01-28T09:18:10.910Z,6.60
2023-01-28T09:20:39.874Z,6.80
2023-01-28T09:23:07.506Z,7.00
2023-01-28T09:25:36.295Z,7.00
2023-01-28T09:28:03.327Z,7.10
2023-01-28T09:30:30.166Z,7.10
2023-01-28T09:32:58.432Z,7.10
2023-01-28T09:35:25.603Z,7.00
2023-01-28T09:37:56.215Z,7.00
2023-01-28T09:40:42.235Z,6.90
2023-01-28T09:43:41.001Z,7.00
2023-01-28T09:46:12.995Z,7.00
2023-01-28T09:48:47.520Z,6.70
2023-01-28T09:51:32.574Z,6.70
2023-01-28T09:54:21.226Z,6.60
2023-01-28T09:56:52.257Z,7.10
2023-01-28T09:59:22.157Z,7.00
2023-01-28T10:01:59.892Z,7.00
2023-01-28T10:04:46.768Z,7.40
2023-01-28T10:07:52.588Z,7.30
2023-01-28T10:10:29.831Z,7.00
2023-01-28T10:13:34.769Z,7.00
2023-01-28T10:16:36.022Z,7.00
2023-01-28T10:19:17.141Z,7.30
2023-01-28T10:22:02.246Z,7.50
2023-01-28T10:25:06.324Z,7.80
2023-01-28T10:27:40.998Z,7.80
2023-01-28T10:30:23.744Z,7.70
2023-01-28T10:33:04.385Z,7.80
2023-01-28T10:35:41.927Z,7.80
2023-01-28T10:38:13.606Z,7.70
2023-01-28T10:40:44.344Z,7.60
2023-01-28T10:43:11.185Z,7.60
2023-01-28T10:45:42.271Z,7.60
2023-01-28T10:48:28.287Z,7.60
2023-01-28T10:51:00.505Z,7.90
2023-01-28T10:53:53.869Z,8.00
2023-01-28T10:56:32.761Z,8.00
2023-01-28T10:59:18.052Z,8.00
2023-01-28T11:01:46.245Z,8.00
2023-01-28T11:04:22.300Z,7.80
2023-01-28T11:06:54.147Z,7.50
2023-01-28T11:09:22.706Z,7.90
2023-01-28T11:11:49.602Z,7.90
2023-01-28T11:14:22.003Z,7.80
2023-01-28T11:16:50.451Z,7.70
2023-01-28T11:19:20.552Z,7.60
2023-01-28T11:21:55.101Z,7.80
2023-01-28T11:24:26.396Z,7.40
2023-01-28T11:26:55.703Z,7.40
2023-01-28T11:29:33.357Z,7.30
2023-01-28T11:32:01.256Z,7.60
2023-01-28T11:34:33.211Z,7.50
2023-01-28T11:37:16.261Z,7.30
2023-01-28T11:39:43.444Z,7.50
2023-01-28T11:42:18.989Z,7.50
2023-01-28T11:44:47.386Z,7.50
2023-01-28T11:47:14.207Z,7.80
2023-01-28T11:50:02.657Z,7.60
2023-01-28T11:53:02.672Z,7.80
2023-01-28T11:55:34.403Z,7.80
2023-01-28T11:58:20.451Z,7.50
2023-01-28T12:01:22.885Z,7.10
2023-01-28T12:04:17.906Z,7.20
2023-01-28T12:06:56.996Z,7.10
2023-01-28T12:09:36.186Z,7.10
2023-01-28T12:12:12.082Z,7.20
2023-01-28T12:15:04.273Z,7.40
2023-01-28T12:17:41.845Z,7.30
2023-01-28T12:20:31.751Z,7.30
2023-01-28T12:23:04.458Z,7.50
2023-01-28T12:26:08.955Z,7.70
2023-01-28T12:28:38.931Z,7.70
2023-01-28T12:31:33.594Z,7.70
2023-01-28T12:34:15.653Z,8.10
2023-01-28T12:37:19.680Z,8.20
2023-01-28T12:40:17.380Z,7.80
2023-01-28T12:43:23.955Z,7.80
2023-01-28T12:46:10.849Z,7.90
2023-01-28T12:49:06.307Z,8.10
2023-01-28T12:51:50.949Z,7.80
2023-01-28T12:54:41.463Z,8.20
2023-01-28T12:57:23.031Z,8.30
2023-01-28T12:59:56.689Z,8.20
2023-01-28T13:02:33.178Z,8.30
2023-01-28T13:05:11.624Z,8.00
2023-01-28T13:08:01.782Z,8.10
2023-01-28T13:10:51.436Z,8.10
2023-01-28T13:13:39.665Z,8.20
2023-01-28T13:16:17.884Z,8.10
2023-01-28T13:18:47.093Z,8.30
2023-01-28T13:21:48.655Z,8.10
2023-01-28T13:24:16.152Z,8.30
2023-01-28T13:26:55.026Z,7.80
2023-01-28T13:29:32.668Z,7.90
2023-01-28T13:32:02.867Z,8.10
2023-01-28T13:34:36.372Z,8.10
2023-01-28T13:37:37.768Z,7.80
2023-01-28T13:40:13.500Z,7.90
2023-01-28T13:42:57.248Z,8.40
2023-01-28T13:45:28.673Z,8.10
2023-01-28T13:48:21.323Z,8.10
2023-01-28T13:51:05.217Z,8.00
2023-01-28T13:53:56.154Z,7.80
2023-01-28T13:56:31.327Z,8.30
2023-01-28T13:59:10.174Z,8.40
2023-01-28T14:01:43.398Z,8.20
2023-01-28T14:04:18.846Z,8.20
2023-01-28T14:06:48.341Z,8.00
2023-01-28T14:09:32.518Z,7.70
2023-01-28T14:12:20.450Z,8.10
2023-01-28T14:15:12.449Z,7.60
2023-01-28T14:17:47.317Z,7.90
2023-01-28T14:20:27.523Z,7.50
2023-01-28T14:23:04.463Z,7.50
2023-01-28T14:26:10.255Z,7.60
2023-01-28T14:29:08.009Z,7.40
2023-01-28T14:31:39.360Z,7.60
2023-01-28T14:34:43.374Z,7.60
2023-01-28T14:37:19.989Z,7.60
2023-01-28T14:39:53.090Z,7.90
2023-01-28T14:42:44.918Z,7.90
2023-01-28T14:45:31.566Z,7.60
2023-01-28T14:48:14.753Z,7.80
2023-01-28T14:51:12.300Z,7.90
2023-01-28T14:54:00.867Z,8.10
2023-01-28T14:56:50.568Z,8.40
2023-01-28T14:59:51.368Z,8.70
2023-01-28T15:02:24.421Z,8.50
2023-01-28T15:04:56.188Z,8.70
2023-01-28T15:07:34.984Z,8.70
2023-01-28T15:10:07.807Z,8.70
2023-01-28T15:12:41.139Z,8.50
2023-01-28T15:15:17.287Z,8.60
2023-01-28T15:17:44.210Z,8.90
2023-01-28T15:20:19.448Z,9.00
2023-01-28T15:22:46.908Z,9.00
2023-01-28T15:25:19.847Z,8.80
2023-01-28T15:27:47.409Z,8.90
2023-01-28T15:30:31.984Z,8.10
2023-01-28T15:33:20.460Z,8.80
2023-01-28T15:35:48.793Z,8.70
2023-01-28T15:38:20.119Z,8.80
2023-01-28T15:41:17.381Z,9.00
2023-01-28T15:43:49.159Z,9.10
2023-01-28T15:46:16.457Z,9.00
2023-01-28T15:48:53.465Z,8.60
2023-01-28T15:51:28.255Z,8.60
2023-01-28T15:54:05.399Z,8.80
2023-01-28T15:56:35.853Z,8.60
2023-01-28T15:59:32.506Z,8.80
2023-01-28T16:02:29.498Z,8.40
2023-01-28T16:05:12.768Z,8.60
2023-01-28T16:07:47.694Z,8.70
2023-01-28T16:10:32.532Z,8.50
2023-01-28T16:13:07.208Z,8.20
2023-01-28T16:15:34.549Z,8.20
2023-01-28T16:18:01.739Z,8.20
2023-01-28T16:20:30.406Z,8.10
2023-01-28T16:23:00.799Z,8.20
2023-01-28T16:25:37.019Z,8.30
2023-01-28T16:28:13.818Z,8.10
2023-01-28T16:30:40.705Z,8.00
2023-01-28T16:33:19.680Z,7.80
2023-01-28T16:36:04.658Z,8.00
2023-01-28T16:38:38.753Z,8.00
2023-01-28T16:41:05.634Z,8.30
2023-01-28T16:46:08.087Z,8.20
2023-01-28T16:48:42.777Z,8.20
2023-01-28T16:51:22.931Z,7.80
2023-01-28T16:53:52.410Z,7.90
2023-01-28T16:56:43.978Z,7.90
2023-01-28T16:59:13.623Z,8.20
2023-01-28T17:01:40.839Z,7.90
2023-01-28T17:04:13.040Z,8.00
2023-01-28T17:06:46.915Z,8.00
2023-01-28T17:09:15.224Z,7.80
2023-01-28T17:11:42.594Z,7.80
2023-01-28T17:14:11.092Z,8.10
2023-01-28T17:16:38.594Z,8.00
2023-01-28T17:19:05.922Z,8.00
2023-01-28T17:21:33.815Z,8.20
2023-01-28T17:24:01.507Z,8.40
2023-01-28T17:26:33.901Z,8.50
2023-01-28T17:29:03.047Z,8.60
2023-01-28T17:31:29.943Z,8.70
2023-01-28T17:33:58.768Z,8.80
2023-01-28T17:36:28.390Z,9.30
2023-01-28T17:38:56.402Z,9.70
2023-01-28T17:41:23.396Z,9.90
2023-01-28T17:43:54.788Z,9.60
2023-01-28T17:46:23.039Z,9.30
2023-01-28T17:48:54.576Z,8.90
2023-01-28T17:51:23.764Z,8.90
2023-01-28T17:53:56.434Z,9.50
2023-01-28T17:56:28.409Z,8.70
2023-01-28T17:59:02.789Z,8.60
2023-01-28T18:01:30.914Z,8.50
2023-01-28T18:04:02.103Z,8.50
2023-01-28T18:06:37.630Z,8.70
2023-01-28T18:09:09.786Z,8.50
2023-01-28T18:11:38.956Z,8.40
2023-01-28T18:14:05.880Z,8.60
2023-01-28T18:16:32.863Z,8.60
2023-01-28T18:18:59.679Z,8.80
2023-01-28T18:21:54.176Z,8.80
2023-01-28T18:24:27.251Z,8.80
2023-01-28T18:26:55.674Z,8.80
2023-01-28T18:29:24.203Z,8.80
2023-01-28T18:31:54.991Z,8.80
2023-01-28T18:34:23.925Z,8.90
2023-01-28T18:36:51.197Z,8.90
2023-01-28T18:39:20.063Z,8.80
2023-01-28T18:41:48.572Z,8.90
2023-01-28T18:44:30.196Z,9.00
2023-01-28T18:46:57.282Z,8.90
2023-01-28T18:49:27.986Z,9.00
2023-01-28T18:52:02.730Z,8.90
2023-01-28T18:54:33.035Z,8.80
2023-01-28T18:57:08.311Z,8.80
2023-01-28T18:59:35.236Z,9.00
2023-01-28T19:02:13.324Z,8.90
2023-01-28T19:04:46.671Z,8.70
2023-01-28T19:07:13.675Z,8.50
2023-01-28T19:09:43.260Z,8.60
2023-01-28T19:12:10.154Z,8.60
2023-01-28T19:14:37.016Z,8.60
2023-01-28T19:17:03.842Z,8.60
2023-01-28T19:19:40.026Z,8.50
2023-01-28T19:22:06.936Z,8.60
2023-01-28T19:24:47.112Z,8.80
2023-01-28T19:27:14.736Z,8.70
2023-01-28T19:29:41.673Z,8.70
2023-01-28T19:32:08.653Z,8.60
2023-01-28T19:34:35.421Z,8.70
2023-01-28T19:37:02.143Z,8.60
2023-01-28T19:39:32.871Z,8.60
2023-01-28T19:42:02.255Z,8.60
2023-01-28T19:44:29.875Z,8.60
2023-01-28T19:46:57.201Z,8.50
2023-01-28T19:49:24.743Z,8.30
2023-01-28T19:51:51.992Z,8.40
2023-01-28T19:54:19.036Z,8.40
2023-01-28T19:56:45.974Z,8.50
2023-01-28T19:59:23.840Z,8.50
2023-01-28T20:01:50.726Z,8.50
2023-01-28T20:04:18.691Z,9.50
2023-01-28T20:06:49.543Z,8.50
2023-01-28T20:09:20.111Z,8.60
2023-01-28T20:11:53.933Z,8.50
2023-01-28T20:14:21.728Z,8.00
2023-01-28T20:16:49.010Z,8.30
2023-01-28T20:19:19.388Z,8.20
2023-01-28T20:21:47.414Z,8.30
2023-01-28T20:24:21.147Z,8.30
2023-01-28T20:26:48.961Z,8.30
2023-01-28T20:29:18.679Z,7.50
2023-01-28T20:32:09.114Z,8.20
2023-01-28T20:34:43.715Z,8.30
2023-01-28T20:37:18.740Z,8.20
2023-01-28T20:39:53.744Z,9.00
2023-01-28T20:42:28.686Z,8.20
2023-01-28T20:44:55.745Z,8.30
2023-01-28T20:47:22.636Z,8.30
2023-01-28T20:49:49.420Z,8.40
2023-01-28T20:52:16.966Z,8.50
2023-01-28T20:54:54.510Z,8.50
2023-01-28T20:57:21.559Z,8.40
2023-01-28T20:59:50.283Z,8.50
2023-01-28T21:02:18.546Z,8.40
2023-01-28T21:04:46.661Z,7.40
2023-01-28T21:07:16.851Z,8.30
2023-01-28T21:09:43.571Z,8.20
2023-01-28T21:12:10.453Z,8.20
2023-01-28T21:14:37.198Z,8.30
2023-01-28T21:17:04.202Z,8.50
2023-01-28T21:19:31.063Z,8.40
2023-01-28T21:21:58.037Z,8.40
2023-01-28T21:24:29.280Z,8.30
2023-01-28T21:26:56.543Z,8.20
2023-01-28T21:29:29.507Z,8.10
2023-01-28T21:32:00.219Z,8.20
2023-01-28T21:34:27.093Z,8.20
2023-01-28T21:36:58.214Z,8.20
2023-01-28T21:39:25.114Z,8.20
2023-01-28T21:41:52.127Z,8.20
2023-01-28T21:44:18.862Z,8.30
2023-01-28T21:46:49.755Z,8.40
2023-01-28T21:49:16.837Z,8.50
2023-01-28T21:51:47.115Z,8.30
2023-01-28T21:54:17.310Z,8.40
2023-01-28T21:56:45.170Z,8.40
2023-01-28T21:59:28.345Z,8.40
2023-01-28T22:01:59.701Z,8.30
2023-01-28T22:04:35.165Z,8.30
2023-01-28T22:07:03.869Z,8.20
2023-01-28T22:09:31.249Z,8.20
2023-01-28T22:11:58.047Z,8.30
2023-01-28T22:14:25.108Z,8.30
2023-01-28T22:16:52.375Z,8.40
2023-01-28T22:19:19.434Z,8.50
2023-01-28T22:21:46.952Z,8.50
2023-01-28T22:24:19.401Z,8.40
2023-01-28T22:26:47.692Z,8.50
2023-01-28T22:29:16.081Z,8.60
2023-01-28T22:31:45.497Z,8.40
2023-01-28T22:34:12.439Z,8.40
2023-01-28T22:36:41.752Z,8.40
2023-01-28T22:39:13.035Z,8.40
2023-01-28T22:41:40.393Z,8.30
2023-01-28T22:44:07.466Z,8.20
2023-01-28T22:46:35.056Z,8.20
2023-01-28T22:49:02.048Z,8.30
2023-01-28T22:51:30.864Z,8.20
2023-01-28T22:53:58.157Z,8.10
2023-01-28T22:56:26.909Z,8.10
2023-01-28T22:58:58.562Z,8.10
2023-01-28T23:01:25.462Z,8.10
2023-01-28T23:03:53.212Z,8.10
2023-01-28T23:06:22.154Z,8.20
2023-01-28T23:08:49.929Z,8.20
2023-01-28T23:11:25.331Z,8.20
2023-01-28T23:14:13.013Z,8.10
2023-01-28T23:16:58.949Z,8.10
2023-01-28T23:19:45.051Z,8.10
2023-01-28T23:22:46.643Z,8.10
2023-01-28T23:25:14.053Z,8.30
2023-01-28T23:27:41.059Z,8.30
2023-01-28T23:30:10.346Z,8.40
2023-01-28T23:32:43.853Z,8.40
2023-01-28T23:35:11.289Z,8.30
2023-01-28T23:37:38.707Z,8.30
2023-01-28T23:40:07.035Z,8.40
2023-01-28T23:42:33.952Z,8.30
2023-01-28T23:45:00.852Z,8.30
2023-01-28T23:47:27.950Z,8.30
2023-01-28T23:49:54.881Z,8.30
2023-01-28T23:52:21.972Z,8.30
2023-01-28T23:54:48.832Z,8.30
2023-01-28T23:57:15.694Z,8.40
2023-01-28T23:59:42.963Z,8.40
